Fargo, ND

7:28 AM CDT on July 14, 2014 (GMT -0500)
Stern (KBWP) Elev 968 ft | 46.24 °N, 96.61 °W | Change Station

Current weather conditions updated 18 minutes ago

Overcast
Overcast
52 °F
Feels Like 52 °F
N
23
Wind Variable Wind from North
Gusts 26 mph

Today is forecast to be Cooler than yesterday.

Today
High -- | Low -- °F
--% Chance of Precip.
Yesterday
High -- | Low -- °F
Precip. -- in
5:46 AM 9:18 PM
Waning Gibbous, 94% visible
Pressure 30.05 in
Visibility 10.0 miles
Clouds Overcast 2200 ft
Dew Point 41 °F
Humidity 67%
Rainfall 0.00 in
Snow Depth Not available.
UV 0 out of 12
Pollen 4.90 out of 12
Air Quality Not available.
Flu Activity Sporadic
METAR KBWP 141210Z AUTO 35020G23KT 10SM OVC022 11/05 A3005 RMK AO1

More Conditions Fewer Conditions

Pressure 30.05 in
Visibility 10.0 miles
Clouds Overcast 2200 ft
Dew Point 41 °F
Humidity 67%
Rainfall 0.00 in
Snow Depth Not available.
UV 0 out of 12
Pollen 4.90 out of 12
Air Quality Not available.
Flu Activity Sporadic
METAR KBWP 141210Z AUTO 35020G23KT 10SM OVC022 11/05 A3005 RMK AO1

More Conditions Fewer Conditions

10-Day Weather Forecast

Almanac

Astronomy

Jul. 14, 2014 Rise Set
Actual Time 5:46 AM CDT 9:18 PM CDT
Civil Twilight 5:08 AM CDT 9:56 PM CDT
Nautical Twilight 4:18 AM CDT 10:47 PM CDT
Astronomical Twilight 3:10 AM CDT 11:54 PM CDT
Moon 10:33 PM CDT 8:44 AM CDT
Length of Visible Light 16h 48m
Length of Day
15h 32m
Tomorrow will be 1m 45s shorter.
Waning Gibbous, 94% of the Moon is Illuminated
Today
Waning Gibbous
Jul 18
Last Quarter
Jul 26
New
Aug 3
First Quarter
Aug 10
Full

Today's Extremes

State Highs State Lows

Community

WunderPhotos

Upload Photos

1,733,622 photos uploaded!

Nearby

Snow Depth

Station Depth Elevation
No new snow has been reported.

Earthquake Activity

City Distance Mag. Time & Date
No recent earthquake activity has been reported nearby.
Minimum magnitude displayed is 2.5.

Coastal Water Temperatures

Place Temperature
No Stations Reporting

Nearby Weather Stations

Station Location Temp. Windchill Dew Point Humidity Wind Precip. Elev Updated Type
Groovetones Central, Fargo, ND 50.7 °F - 44 °F 78% NNW  at  4.0 mph 0.00 in / hr 901 ft 7:28 AM CDT Rapid Fire
Country Club, Moorhead, MN 50.4 °F - 46 °F 86% NNE  at  6.7 mph 0.00 in / hr 901 ft 7:28 AM CDT Rapid Fire
Mhd's Co-op Observer, N Moorhead, MN 49.7 °F 45 °F 44 °F 80% NNW  at  11.0 mph 0.00 in / hr 890 ft 7:28 AM CDT Rapid Fire
Harwood, ND, Harwood, ND 49.5 °F 50 °F 44 °F 82% WSW  at  0.0 mph 0.00 in / hr 879 ft 7:14 AM CDT Normal
South Fargo, Fargo, ND 51.6 °F - 45 °F 78% North  at  3.0 mph 0.00 in / hr 902 ft 7:27 AM CDT Normal
Westport Beach, West Fargo, ND 50.7 °F - 46 °F 85% NW  at  15.0 mph - / hr 896 ft 7:27 AM CDT Normal
MNDOT Dilworth I-94 Mile Post 5, Dilworth, MN 53 °F - 45 °F 75% North  at  20 mph 0.00 in / hr 907 ft 4:45 AM CDT MADIS
Argusville, Argusville, ND 50.0 °F - 45 °F 84% North  at  0.0 mph 0.00 in / hr 899 ft 7:25 AM CDT Normal

Show More Stations Show Fewer Stations